Jordan Valley WCD
8215 S 1300 W, West Jordan
Last Weather Update:9/30/2011 11:00:00 AM
Date
ETo
ETc
Rain
Irrigation
Req
Temp
Max
Temp
Min
Temp
Avg
Avg RH
Avg Wind
Avg Solar
inches
inches
incehs
inches
F
F
F
%
%
watts/m2
8/1/2011 0.10" 0.09" 0.47" -0.29" 81.6° 64.5° 70.9° 70.5% 1.1 MPH 144.1w/m2
8/2/2011 0.18" 0.16" 0.00" 0.16" 90.9° 57.4° 73.5° 56.6% 0.5 MPH 254.4w/m2
8/3/2011 0.16" 0.14" 0.16" 0.02" 82.6° 59.6° 71.8° 59.9% 2.3 MPH 211.2w/m2
8/4/2011 0.18" 0.16" 0.00" 0.16" 89.1° 64.3° 75.5° 46.1% 3.5 MPH 215.4w/m2
8/5/2011 0.24" 0.21" 0.00" 0.21" 91.5° 64.5° 77.5° 33.6% 3.9 MPH 292.1w/m2
8/6/2011 0.22" 0.19" 0.00" 0.19" 91.0° 52.9° 73.5° 35.6% 2.1 MPH 293.3w/m2
8/7/2011 0.23" 0.20" 0.00" 0.20" 92.9° 58.9° 76.9° 27.4% 3.6 MPH 291.0w/m2
8/8/2011 0.20" 0.17" 0.00" 0.17" 93.1° 55.8° 74.8° 35.9% 1.3 MPH 284.8w/m2
8/9/2011 0.22" 0.18" 0.00" 0.18" 89.2° 62.0° 76.8° 27.2% 2.5 MPH 284.2w/m2
8/10/2011 0.20" 0.17" 0.00" 0.17" 93.2° 52.9° 73.2° 36.9% 1.2 MPH 282.4w/m2
8/11/2011 0.21" 0.17" 0.00" 0.17" 90.8° 61.0° 76.4° 31.1% 1.9 MPH 278.7w/m2
8/12/2011 0.19" 0.16" 0.00" 0.16" 89.2° 55.2° 73.1° 39.9% 0.9 MPH 277.5w/m2
8/13/2011 0.21" 0.17" 0.00" 0.17" 94.8° 55.6° 76.0° 39.9% 2.4 MPH 259.6w/m2
8/14/2011 0.19" 0.15" 0.02" 0.14" 91.6° 65.1° 78.3° 41.2% 2.5 MPH 239.5w/m2
8/15/2011 0.17" 0.13" 0.24" -0.06" 87.3° 60.7° 72.9° 55.9% 2.8 MPH 217.4w/m2
8/16/2011 0.18" 0.14" 0.00" 0.14" 86.5° 57.2° 72.4° 46.0% 0.7 MPH 262.6w/m2
8/17/2011 0.20" 0.16" 0.00" 0.16" 95.5° 58.6° 74.6° 42.8% 1.5 MPH 270.1w/m2
8/18/2011 0.20" 0.15" 0.00" 0.15" 93.0° 57.7° 75.8° 37.1% 1.4 MPH 274.2w/m2
8/19/2011 0.18" 0.14" 0.00" 0.14" 94.6° 67.9° 79.7° 38.9% 2.9 MPH 214.3w/m2
8/20/2011 0.19" 0.15" 0.12" 0.05" 94.2° 65.1° 76.3° 45.9% 2.7 MPH 230.0w/m2
8/21/2011 0.21" 0.16" 0.00" 0.16" 91.9° 67.7° 78.9° 38.2% 3.8 MPH 252.0w/m2
8/22/2011 0.22" 0.17" 0.00" 0.17" 94.7° 68.6° 80.2° 33.9% 4.0 MPH 249.9w/m2
8/23/2011 0.20" 0.15" 0.00" 0.15" 97.4° 65.5° 79.5° 33.5% 1.7 MPH 261.3w/m2
8/24/2011 0.18" 0.13" 0.00" 0.13" 98.2° 59.3° 77.3° 40.7% 1.5 MPH 210.7w/m2
8/25/2011 0.17" 0.13" 0.00" 0.13" 97.6° 71.7° 81.2° 36.0% 3.2 MPH 160.1w/m2
8/26/2011 0.19" 0.14" 0.00" 0.14" 97.2° 67.2° 81.5° 38.8% 3.5 MPH 204.7w/m2
8/27/2011 0.20" 0.14" 0.00" 0.14" 96.8° 71.2° 82.2° 40.6% 2.9 MPH 231.8w/m2
8/28/2011 0.16" 0.11" 0.62" -0.38" 91.3° 61.2° 74.5° 67.3% 1.7 MPH 224.1w/m2
8/29/2011 0.19" 0.13" 0.03" 0.11" 91.6° 60.5° 74.1° 63.9% 2.9 MPH 258.2w/m2
8/30/2011 0.19" 0.14" 0.00" 0.14" 94.9° 66.6° 78.8° 42.4% 4.0 MPH 225.6w/m2
8/31/2011 0.25" 0.17" 0.00" 0.17" 92.3° 68.5° 79.9° 32.3% 5.7 MPH 241.3w/m2
Totals: 5.98" 4.76" 1.66" 3.43" 98.2° 52.9° 76.4° 42.5% 2.5 MPH 245.0w/m2